sim
Sign-in with your pilot id or email,
or register
Callsign
Passwort

Schedule Details

Flight Number: RYR1518 (1)
Departure: London Stansted Airport (EGSS) at 19:35
Arrival: Hamburg Airport (EDDH) at 21:05
Route: Ryanair Passenger Schedule. Enter filed route here before submitting Pirep.

Weather Information
Getting current METAR information for EGSS 161450Z AUTO 27004KT 240V310 9999 BKN004 06/06 Q1015
Getting current METAR information for EDDH 161450Z 21006KT 9999 SCT039 M01/M04 Q1021 NOSIG

Schedule Frequency

Route Map